Time;durP1;ratioP1;P1;durP2;ratioP2;P2;SDS_P1;SDS_P2;PMS_P1;PMS_P2;Temp;Humidity;BMP_temperature;BMP_pressure;BME280_temperature;BME280_humidity;BME280_pressure;Samples;Min_cycle;Max_cycle;Signal;HPM_P1;HPM_P2
2023/01/07 06:03:41;;;;;;;2.50;1.38;;;9.50;99.90;;;;;;4898966;29;20069;-71
2023/01/07 06:06:07;;;;;;;2.25;1.25;;;9.50;99.90;;;;;;4897979;29;20033;-72
2023/01/07 06:08:34;;;;;;;2.08;1.02;;;9.50;99.90;;;;;;4907152;29;20281;-72
2023/01/07 06:11:00;;;;;;;2.28;1.13;;;9.50;99.90;;;;;;4894527;29;20041;-73
2023/01/07 06:13:26;;;;;;;2.55;1.23;;;9.50;99.90;;;;;;4888707;29;20036;-71
2023/01/07 06:15:51;;;;;;;2.65;1.30;;;9.50;99.90;;;;;;4889221;29;20157;-75
2023/01/07 06:18:17;;;;;;;2.03;1.10;;;9.50;99.90;;;;;;4892965;29;20024;-73
2023/01/07 06:20:43;;;;;;;2.30;1.10;;;9.50;99.90;;;;;;4907463;29;20040;-71
2023/01/07 06:23:09;;;;;;;2.17;0.95;;;9.50;99.90;;;;;;4907736;29;20028;-73
2023/01/07 06:25:34;;;;;;;2.70;1.15;;;9.50;99.90;;;;;;4907014;29;20041;-71
2023/01/07 06:28:00;;;;;;;3.22;1.10;;;9.50;99.90;;;;;;4907557;29;20040;-72
2023/01/07 06:30:26;;;;;;;1.98;1.10;;;9.50;99.90;;;;;;4905023;29;20032;-71
2023/01/07 06:32:52;;;;;;;2.33;1.40;;;9.50;99.90;;;;;;4907415;29;20040;-73
2023/01/07 06:35:18;;;;;;;2.92;1.42;;;9.40;99.90;;;;;;4902682;29;20040;-72
2023/01/07 06:37:44;;;;;;;2.85;1.38;;;9.40;99.90;;;;;;4888265;29;20037;-71
2023/01/07 06:40:10;;;;;;;1.63;0.93;;;9.40;99.90;;;;;;4887971;29;20093;-73
2023/01/07 06:42:36;;;;;;;2.97;1.40;;;9.40;99.90;;;;;;4887998;29;20028;-71
2023/01/07 06:45:02;;;;;;;2.25;1.13;;;9.40;99.90;;;;;;4888797;29;20060;-74
2023/01/07 06:47:28;;;;;;;2.30;1.10;;;9.40;99.90;;;;;;4886911;29;20304;-71
2023/01/07 06:49:54;;;;;;;2.05;0.80;;;9.40;99.90;;;;;;4888650;29;20085;-71
2023/01/07 06:52:20;;;;;;;1.77;0.95;;;9.40;99.90;;;;;;4888274;29;20029;-73
2023/01/07 06:54:45;;;;;;;1.92;0.88;;;9.40;99.90;;;;;;4887937;29;20089;-71
2023/01/07 06:57:11;;;;;;;1.58;0.80;;;9.40;99.90;;;;;;4888118;29;20303;-74
2023/01/07 06:59:37;;;;;;;1.50;0.63;;;9.40;99.90;;;;;;4887644;29;20040;-73
2023/01/07 07:02:03;;;;;;;2.20;0.70;;;9.40;99.90;;;;;;4897288;29;20056;-74
2023/01/07 07:04:28;;;;;;;2.10;0.80;;;9.40;99.90;;;;;;4906482;29;20024;-76
2023/01/07 07:06:54;;;;;;;1.48;0.65;;;9.40;99.90;;;;;;4906804;29;20029;-74
2023/01/07 07:09:20;;;;;;;1.50;0.65;;;9.40;99.90;;;;;;4906896;29;20035;-73
2023/01/07 07:11:46;;;;;;;1.85;0.90;;;9.30;99.90;;;;;;4906642;29;20024;-73
2023/01/07 07:14:11;;;;;;;1.77;0.80;;;9.30;99.90;;;;;;4906824;29;20100;-72
2023/01/07 07:16:37;;;;;;;1.77;0.70;;;9.30;99.90;;;;;;4889862;29;20044;-72
2023/01/07 07:19:03;;;;;;;1.08;0.60;;;9.40;99.90;;;;;;4906869;29;20133;-73
2023/01/07 07:21:29;;;;;;;1.20;0.60;;;9.30;99.90;;;;;;4905408;29;20068;-72
2023/01/07 07:23:54;;;;;;;2.00;1.00;;;9.30;99.90;;;;;;4906554;29;20039;-73
2023/01/07 07:26:20;;;;;;;1.23;0.55;;;9.30;99.90;;;;;;4906721;29;20029;-74
2023/01/07 07:28:46;;;;;;;1.40;0.60;;;9.30;99.90;;;;;;4906038;29;20339;-74
2023/01/07 07:31:11;;;;;;;1.52;0.63;;;9.30;99.90;;;;;;4906497;29;20306;-72
2023/01/07 07:33:37;;;;;;;1.33;0.57;;;9.30;99.90;;;;;;4906157;29;20202;-73
2023/01/07 07:36:04;;;;;;;1.70;0.60;;;9.30;99.90;;;;;;4906824;29;20032;-72
2023/01/07 07:38:29;;;;;;;1.25;0.55;;;9.30;99.90;;;;;;4907274;29;20302;-74
2023/01/07 07:40:55;;;;;;;1.65;0.80;;;9.30;99.90;;;;;;4907424;29;20091;-74
2023/01/07 07:43:21;;;;;;;1.90;0.88;;;9.20;99.90;;;;;;4910667;29;20028;-71
2023/01/07 07:45:47;;;;;;;1.88;0.80;;;9.30;99.90;;;;;;4909878;29;20284;-74
2023/01/07 07:48:14;;;;;;;1.90;0.90;;;9.30;99.90;;;;;;4910485;29;20046;-74
2023/01/07 07:50:40;;;;;;;1.23;0.60;;;9.20;99.90;;;;;;4909711;29;20103;-72
2023/01/07 07:53:08;;;;;;;1.63;0.90;;;9.30;99.90;;;;;;4909278;29;20278;-73
2023/01/07 07:55:38;;;;;;;1.65;0.68;;;9.30;99.90;;;;;;4908583;29;20248;-72
2023/01/07 07:58:04;;;;;;;1.58;0.63;;;9.30;99.90;;;;;;4908859;29;20080;-73
2023/01/07 08:00:30;;;;;;;1.25;0.50;;;9.40;99.90;;;;;;4909816;29;20033;-73
2023/01/07 08:02:57;;;;;;;1.33;0.70;;;9.40;99.90;;;;;;4910108;29;20357;-74
2023/01/07 08:05:23;;;;;;;2.13;0.70;;;9.40;99.90;;;;;;4910288;29;20037;-73
2023/01/07 08:07:49;;;;;;;1.58;0.50;;;9.50;99.90;;;;;;4909683;29;20036;-72
2023/01/07 08:10:14;;;;;;;1.50;0.50;;;9.50;99.90;;;;;;4910173;29;20088;-73
2023/01/07 08:12:40;;;;;;;1.30;0.57;;;9.50;99.90;;;;;;4909384;29;20134;-75
2023/01/07 08:15:07;;;;;;;1.48;0.60;;;9.50;99.90;;;;;;4909095;29;20032;-74
2023/01/07 08:17:35;;;;;;;1.05;0.50;;;9.50;99.90;;;;;;4912335;29;20028;-72
2023/01/07 08:20:01;;;;;;;1.02;0.47;;;9.50;99.90;;;;;;4912413;29;20040;-72
2023/01/07 08:22:26;;;;;;;1.65;0.68;;;9.50;99.90;;;;;;4912324;29;20024;-72
2023/01/07 08:24:52;;;;;;;1.42;0.60;;;9.60;99.90;;;;;;4910474;29;20073;-74
2023/01/07 08:27:18;;;;;;;2.00;0.70;;;9.60;99.90;;;;;;4910747;29;20040;-73
2023/01/07 08:29:44;;;;;;;1.80;0.60;;;9.60;99.90;;;;;;4909515;29;20306;-73
2023/01/07 08:32:10;;;;;;;1.02;0.50;;;9.70;99.90;;;;;;4909450;29;20033;-71
2023/01/07 08:34:35;;;;;;;2.08;0.73;;;9.80;99.90;;;;;;4909203;29;20032;-73
2023/01/07 08:37:01;;;;;;;2.33;0.70;;;9.80;99.90;;;;;;4909354;29;20072;-73
2023/01/07 08:39:27;;;;;;;1.65;0.80;;;9.80;99.90;;;;;;4909668;29;20080;-73
2023/01/07 08:41:53;;;;;;;2.40;0.73;;;9.80;99.90;;;;;;4908801;29;20037;-73
2023/01/07 08:44:19;;;;;;;1.85;0.70;;;9.80;99.90;;;;;;4909625;29;20036;-73
2023/01/07 08:46:44;;;;;;;1.83;0.60;;;9.80;99.90;;;;;;4908888;29;20065;-74
2023/01/07 08:49:10;;;;;;;1.88;0.70;;;9.80;99.90;;;;;;4909459;29;20077;-72
2023/01/07 08:51:36;;;;;;;1.73;0.70;;;9.80;99.90;;;;;;4909081;29;20032;-74
2023/01/07 08:54:02;;;;;;;2.88;1.00;;;9.90;99.90;;;;;;4908602;29;20079;-73
2023/01/07 08:56:28;;;;;;;1.75;0.80;;;9.90;99.90;;;;;;4909048;29;20064;-75
2023/01/07 08:58:54;;;;;;;1.73;1.02;;;10.00;99.90;;;;;;4908758;29;20033;-71
2023/01/07 09:01:20;;;;;;;2.13;0.88;;;10.00;99.90;;;;;;4908928;29;20072;-72
2023/01/07 09:03:45;;;;;;;1.55;0.70;;;10.10;99.90;;;;;;4908093;29;20044;-74
2023/01/07 09:06:11;;;;;;;1.83;0.82;;;10.10;99.90;;;;;;4909027;29;20036;-72
2023/01/07 09:08:37;;;;;;;2.50;0.70;;;10.20;99.90;;;;;;4908332;29;20369;-74
2023/01/07 09:11:03;;;;;;;2.13;0.90;;;10.30;99.90;;;;;;4909115;29;20311;-71
2023/01/07 09:13:28;;;;;;;2.40;0.95;;;10.30;99.90;;;;;;4907525;29;20052;-72
2023/01/07 09:15:54;;;;;;;3.00;1.02;;;10.50;99.90;;;;;;4905140;29;20041;-72
2023/01/07 09:18:20;;;;;;;2.42;1.10;;;10.60;99.90;;;;;;4899548;29;20021;-75
2023/01/07 09:20:46;;;;;;;1.92;0.88;;;10.70;99.90;;;;;;4907006;29;20033;-73
2023/01/07 09:23:11;;;;;;;1.30;0.70;;;10.70;99.90;;;;;;4892898;29;20092;-75
2023/01/07 09:25:37;;;;;;;1.90;0.80;;;10.80;99.90;;;;;;4889232;29;20108;-73
2023/01/07 09:28:03;;;;;;;3.30;0.80;;;10.90;99.90;;;;;;4890058;29;20198;-73
2023/01/07 09:30:29;;;;;;;1.75;0.90;;;11.00;99.90;;;;;;4889668;29;20041;-75
2023/01/07 09:32:54;;;;;;;2.15;0.80;;;11.00;99.90;;;;;;4889096;29;20113;-74
2023/01/07 09:35:20;;;;;;;2.83;1.00;;;11.10;99.90;;;;;;4905392;29;20029;-73
2023/01/07 09:37:46;;;;;;;2.00;0.82;;;11.10;99.90;;;;;;4907903;29;20094;-76
2023/01/07 09:40:24;;;;;;;3.38;1.10;;;11.10;99.90;;;;;;4908209;29;20035;-75
2023/01/07 09:43:06;;;;;;;;;;;11.10;99.90;;;;;;4908378;29;20024;-73
2023/01/07 09:45:37;;;;;;;3.47;0.90;;;11.20;99.90;;;;;;4908345;29;19915;-74
2023/01/07 09:48:24;;;;;;;2.60;1.05;;;11.20;99.90;;;;;;4907997;29;20435;-72
2023/01/07 09:50:55;;;;;;;2.38;1.05;;;11.10;99.90;;;;;;4907855;29;20028;-73
2023/01/07 09:53:41;;;;;;;3.63;1.27;;;11.20;99.90;;;;;;4908406;29;20036;-72
2023/01/07 09:56:18;;;;;;;3.95;1.80;;;11.10;99.90;;;;;;4922496;29;20307;-75
2023/01/07 09:58:46;;;;;;;2.45;1.30;;;11.00;99.90;;;;;;4907571;29;20091;-73
2023/01/07 10:01:35;;;;;;;3.58;1.90;;;11.00;99.90;;;;;;4902988;29;20041;-73
2023/01/07 10:04:39;;;;;;;3.00;1.90;;;11.10;99.90;;;;;;4907956;29;20116;-73
2023/01/07 10:07:23;;;;;;;3.05;1.88;;;11.20;99.90;;;;;;4907960;29;20052;-75
2023/01/07 10:09:48;;;;;;;3.38;2.03;;;11.10;99.90;;;;;;4907124;29;20107;-74
2023/01/07 10:12:39;;;;;;;4.88;2.30;;;11.10;99.90;;;;;;4907562;29;20033;-74
2023/01/07 10:15:33;;;;;;;3.35;2.20;;;11.10;99.90;;;;;;4906763;29;20100;-74
2023/01/07 10:18:30;;;;;;;3.05;2.10;;;11.10;99.90;;;;;;4902351;29;20052;-74
2023/01/07 10:21:17;;;;;;;4.32;2.22;;;11.30;99.90;;;;;;4888395;29;20039;-71
2023/01/07 10:23:52;;;;;;;3.28;1.77;;;11.30;99.90;;;;;;4906812;29;20040;-74
2023/01/07 10:26:52;;;;;;;4.05;1.98;;;11.40;99.90;;;;;;4901723;29;20052;-74
2023/01/07 10:29:26;;;;;;;3.28;1.88;;;11.40;99.90;;;;;;4906418;29;20040;-72
2023/01/07 10:31:57;;;;;;;3.03;1.98;;;11.30;99.90;;;;;;4906692;29;20031;-74
2023/01/07 10:34:29;;;;;;;3.10;1.90;;;11.40;99.90;;;;;;4907432;29;20091;-73
2023/01/07 10:37:09;;;;;;;3.72;2.17;;;11.60;99.90;;;;;;4901243;29;20341;-74
2023/01/07 10:39:44;;;;;;;3.58;2.15;;;11.70;99.90;;;;;;4907351;29;20043;-73
2023/01/07 10:42:36;;;;;;;3.95;2.60;;;12.00;99.90;;;;;;4907102;29;20240;-72
2023/01/07 10:45:29;;;;;;;3.55;2.30;;;12.20;99.90;;;;;;4906493;29;20310;-73
2023/01/07 10:48:14;;;;;;;5.05;2.78;;;12.30;99.90;;;;;;4906792;29;20103;-74
2023/01/07 10:50:49;;;;;;;4.85;2.70;;;12.30;99.90;;;;;;4906446;29;20066;-71
2023/01/07 10:53:25;;;;;;;5.15;2.83;;;12.30;99.90;;;;;;4907011;29;20083;-76
2023/01/07 10:56:13;;;;;;;5.18;3.17;;;12.40;99.90;;;;;;4906460;29;20353;-74
2023/01/07 10:58:42;;;;;;;5.07;3.20;;;12.60;99.90;;;;;;4903199;29;20024;-71
2023/01/07 11:01:33;;;;;;;4.72;2.75;;;12.60;99.70;;;;;;4906891;29;20029;-77
2023/01/07 11:03:59;;;;;;;4.63;3.15;;;12.70;99.80;;;;;;4906458;29;20051;-77
2023/01/07 11:06:49;;;;;;;4.50;3.20;;;13.00;99.60;;;;;;4904247;29;20029;-76
2023/01/07 11:09:28;;;;;;;3.80;2.38;;;13.30;98.60;;;;;;4891957;29;20029;-75
2023/01/07 11:11:57;;;;;;;4.72;3.15;;;13.80;98.00;;;;;;4906197;29;20249;-75
2023/01/07 11:14:27;;;;;;;5.45;3.28;;;13.70;97.60;;;;;;4907181;29;20129;-76
2023/01/07 11:17:16;;;;;;;3.92;2.58;;;14.00;97.40;;;;;;4905813;29;20040;-74
2023/01/07 11:19:51;;;;;;;4.10;2.70;;;14.00;97.20;;;;;;4906554;29;20231;-72
2023/01/07 11:22:25;;;;;;;3.30;2.28;;;14.40;96.40;;;;;;4906830;29;20048;-70
2023/01/07 11:24:57;;;;;;;3.92;2.45;;;14.70;96.20;;;;;;4901708;29;20033;-73
2023/01/07 11:27:26;;;;;;;3.40;2.33;;;15.00;95.90;;;;;;4906429;29;20040;-73
2023/01/07 11:30:00;;;;;;;3.97;2.53;;;15.00;95.10;;;;;;4906080;29;20102;-72
2023/01/07 11:32:29;;;;;;;5.30;2.55;;;15.60;94.90;;;;;;4906912;29;20028;-74
2023/01/07 11:35:05;;;;;;;4.50;2.67;;;15.80;94.00;;;;;;4901634;29;20095;-71
2023/01/07 11:37:42;;;;;;;3.30;2.08;;;16.00;93.90;;;;;;4906521;29;20072;-72
2023/01/07 11:40:11;;;;;;;4.72;2.72;;;16.40;93.10;;;;;;4906391;29;20025;-70
2023/01/07 11:43:00;;;;;;;3.63;2.20;;;16.10;93.20;;;;;;4906723;29;20096;-74
2023/01/07 11:45:29;;;;;;;4.00;2.30;;;16.40;92.90;;;;;;4906509;29;20430;-74
2023/01/07 11:48:08;;;;;;;3.45;2.47;;;16.60;92.90;;;;;;4906264;29;20203;-72
2023/01/07 11:50:41;;;;;;;3.63;1.98;;;17.10;92.00;;;;;;4906462;29;20036;-73
2023/01/07 11:53:13;;;;;;;2.95;2.03;;;17.90;91.20;;;;;;4906542;29;20211;-75
2023/01/07 11:55:55;;;;;;;2.95;2.20;;;18.30;90.30;;;;;;4906400;29;20040;-73
2023/01/07 11:58:22;;;;;;;3.33;2.10;;;18.00;90.10;;;;;;4906367;29;20048;-78
2023/01/07 12:01:06;;;;;;;3.40;2.22;;;18.60;89.50;;;;;;4905928;29;20270;-75
2023/01/07 12:03:32;;;;;;;4.10;2.50;;;18.70;87.90;;;;;;4906156;29;20041;-73
2023/01/07 12:06:06;;;;;;;2.70;2.00;;;18.60;88.10;;;;;;4905742;29;20326;-74
2023/01/07 12:08:32;;;;;;;3.83;2.55;;;18.70;87.60;;;;;;4906732;29;20032;-73
2023/01/07 12:11:05;;;;;;;3.35;2.35;;;19.40;85.70;;;;;;4906073;29;20088;-75
2023/01/07 12:13:31;;;;;;;3.42;2.42;;;19.30;85.50;;;;;;4906611;29;20056;-73
2023/01/07 12:16:05;;;;;;;4.07;2.60;;;19.00;85.90;;;;;;4905761;29;20055;-74
2023/01/07 12:19:08;;;;;;;2.72;2.03;;;19.20;85.00;;;;;;4906488;29;20036;-75
2023/01/07 12:21:35;;;;;;;4.03;2.72;;;19.10;84.70;;;;;;4906199;29;20096;-74
2023/01/07 12:24:05;;;;;;;3.75;2.42;;;19.80;83.30;;;;;;4904847;29;20218;-74
2023/01/07 12:26:53;;;;;;;4.07;2.70;;;19.70;82.40;;;;;;4905913;29;20377;-73
2023/01/07 12:29:52;;;;;;;3.07;2.30;;;19.70;82.70;;;;;;4909014;29;20325;-74
2023/01/07 12:32:21;;;;;;;3.22;2.35;;;19.90;81.10;;;;;;4909779;29;20028;-75
2023/01/07 12:35:05;;;;;;;3.80;2.38;;;19.70;81.30;;;;;;4907770;29;20043;-75
2023/01/07 12:37:31;;;;;;;4.05;2.40;;;19.80;81.20;;;;;;4908786;29;20229;-76
2023/01/07 12:40:41;;;;;;;4.63;2.50;;;19.90;81.20;;;;;;4915212;29;20302;-72
2023/01/07 12:43:24;;;;;;;3.10;2.33;;;20.00;80.40;;;;;;4915192;29;20055;-73
2023/01/07 12:46:00;;;;;;;3.60;2.50;;;19.50;81.20;;;;;;4912511;29;20336;-76
2023/01/07 12:48:56;;;;;;;3.55;2.20;;;19.40;82.00;;;;;;4924357;29;20377;-77
2023/01/07 12:51:33;;;;;;;3.67;2.30;;;19.40;81.60;;;;;;4909288;29;20051;-74
2023/01/07 12:54:18;;;;;;;6.43;2.78;;;19.40;81.90;;;;;;4908959;29;20342;-74
2023/01/07 12:56:52;;;;;;;3.42;2.20;;;19.30;81.80;;;;;;4908718;29;20033;-76
2023/01/07 12:59:34;;;;;;;3.60;2.47;;;18.90;81.70;;;;;;4909136;29;20235;-76
2023/01/07 13:02:28;;;;;;;3.63;2.22;;;18.20;83.50;;;;;;4908650;29;20121;-74
2023/01/07 13:05:16;;;;;;;3.55;2.40;;;17.60;84.90;;;;;;4908570;29;20037;-74
2023/01/07 13:07:57;;;;;;;4.13;2.28;;;17.10;86.20;;;;;;4908928;29;20052;-74
2023/01/07 13:10:40;;;;;;;3.25;2.13;;;16.90;86.40;;;;;;4908868;29;20029;-76
2023/01/07 13:13:14;;;;;;;3.72;2.70;;;17.20;86.80;;;;;;4908268;29;20025;-75
2023/01/07 13:15:40;;;;;;;4.70;2.50;;;17.00;86.20;;;;;;4908763;29;20100;-74
2023/01/07 13:18:17;;;;;;;3.67;2.42;;;16.60;88.00;;;;;;4908580;29;20044;-78
2023/01/07 13:20:53;;;;;;;3.67;2.40;;;16.80;87.20;;;;;;4909097;29;20096;-75
2023/01/07 13:23:24;;;;;;;3.15;2.20;;;17.00;86.40;;;;;;4909030;29;20047;-74
2023/01/07 13:26:04;;;;;;;5.05;2.67;;;17.50;85.70;;;;;;4908358;29;20052;-77
2023/01/07 13:28:42;;;;;;;4.05;2.50;;;17.50;85.30;;;;;;4908791;29;20045;-76
2023/01/07 13:31:43;;;;;;;5.03;2.63;;;17.20;85.80;;;;;;4908078;29;20039;-74
2023/01/07 13:34:23;;;;;;;4.97;2.83;;;16.60;88.20;;;;;;4906506;29;20666;-72
2023/01/07 13:36:49;;;;;;;4.05;2.40;;;16.00;90.00;;;;;;4907013;29;20168;-75
2023/01/07 13:39:34;;;;;;;3.75;2.60;;;15.90;90.30;;;;;;4906627;29;20301;-72
2023/01/07 13:42:10;;;;;;;3.20;2.28;;;15.90;89.80;;;;;;4907966;29;20033;-76
2023/01/07 13:44:56;;;;;;;5.07;2.47;;;15.60;90.60;;;;;;4908341;29;20056;-74
2023/01/07 13:47:25;;;;;;;5.75;3.22;;;15.10;91.40;;;;;;4908277;29;20306;-74
2023/01/07 13:49:56;;;;;;;3.95;2.72;;;14.80;91.40;;;;;;4907860;29;20271;-75
2023/01/07 13:52:25;;;;;;;5.28;2.40;;;14.60;91.40;;;;;;4905535;29;20040;-75
2023/01/07 13:55:21;;;;;;;4.60;2.60;;;14.60;91.60;;;;;;4901984;29;20318;-77
2023/01/07 13:57:47;;;;;;;3.90;2.50;;;14.50;92.10;;;;;;4896656;29;20061;-74
2023/01/07 14:01:04;;;;;;;4.03;2.38;;;14.60;91.50;;;;;;4900400;29;20259;-74
2023/01/07 14:03:43;;;;;;;4.50;2.55;;;14.90;91.10;;;;;;4879367;29;20044;-73
2023/01/07 14:06:20;;;;;;;6.55;2.42;;;15.10;91.00;;;;;;4907600;29;20037;-75
2023/01/07 14:09:09;;;;;;;5.03;2.60;;;15.20;90.80;;;;;;4908149;29;20144;-74
2023/01/07 14:11:37;;;;;;;4.35;2.58;;;15.10;90.70;;;;;;4889128;29;20032;-73
2023/01/07 14:14:40;;;;;;;3.80;2.45;;;15.00;91.00;;;;;;4888351;29;20044;-73
2023/01/07 14:17:26;;;;;;;4.45;2.25;;;14.90;91.00;;;;;;4888282;29;20041;-74
2023/01/07 14:20:12;;;;;;;4.18;2.30;;;14.60;91.40;;;;;;4888683;29;20167;-73
2023/01/07 14:22:42;;;;;;;4.15;2.53;;;14.60;91.40;;;;;;4889135;29;20037;-74
2023/01/07 14:25:38;;;;;;;4.72;2.70;;;14.60;91.30;;;;;;4887384;29;20036;-75
2023/01/07 14:28:21;;;;;;;3.85;2.38;;;14.30;91.70;;;;;;4902654;29;20039;-74
2023/01/07 14:30:49;;;;;;;3.65;2.45;;;14.10;92.00;;;;;;4907352;29;20024;-75
2023/01/07 14:33:37;;;;;;;3.95;2.33;;;14.00;92.40;;;;;;4905774;29;20316;-75
2023/01/07 14:36:10;;;;;;;;;;;14.20;92.20;;;;;;4907651;29;20255;-74
2023/01/07 14:38:36;;;;;;;3.65;2.25;;;14.40;91.60;;;;;;4907501;29;20084;-75
2023/01/07 14:41:02;;;;;;;4.75;2.70;;;14.70;91.50;;;;;;4906691;29;20032;-73
2023/01/07 14:43:46;;;;;;;4.30;2.67;;;14.50;91.40;;;;;;4906125;29;20048;-73
2023/01/07 14:46:21;;;;;;;4.07;2.08;;;14.10;92.00;;;;;;4906794;29;20040;-73
2023/01/07 14:49:01;;;;;;;3.88;2.53;;;13.60;92.50;;;;;;4907260;29;20032;-76
2023/01/07 14:51:52;;;;;;;4.40;2.78;;;13.50;92.70;;;;;;4906536;29;20040;-73
2023/01/07 14:54:37;;;;;;;3.08;2.00;;;13.80;92.80;;;;;;4907137;29;20041;-74
2023/01/07 14:57:08;;;;;;;4.95;2.53;;;14.00;92.30;;;;;;4906279;29;20032;-75
2023/01/07 14:59:50;;;;;;;5.80;2.40;;;14.30;91.90;;;;;;4906837;29;20105;-74
2023/01/07 15:02:53;;;;;;;4.22;2.70;;;14.00;91.90;;;;;;4906151;29;20051;-73
2023/01/07 15:05:50;;;;;;;4.40;2.50;;;13.50;92.90;;;;;;4906976;29;20032;-74
2023/01/07 15:16:52;;;;;;;4.70;2.75;;;12.10;95.20;;;;;;4906784;29;20103;-73
2023/01/07 15:19:19;;;;;;;5.72;2.83;;;12.00;95.60;;;;;;4906716;29;20048;-75
2023/01/07 15:22:03;;;;;;;6.07;3.22;;;11.80;96.00;;;;;;4906456;29;20088;-73
2023/01/07 15:24:42;;;;;;;4.30;3.00;;;11.60;96.40;;;;;;4906553;29;20039;-72
2023/01/07 15:27:19;;;;;;;5.05;2.63;;;11.40;96.50;;;;;;4906472;29;20032;-73
2023/01/07 15:30:06;;;;;;;6.07;2.95;;;11.20;96.70;;;;;;4906565;29;20051;-71
2023/01/07 15:32:48;;;;;;;6.78;2.75;;;11.10;97.00;;;;;;4906680;29;20033;-74
2023/01/07 15:35:25;;;;;;;6.40;3.30;;;11.00;97.70;;;;;;4906085;29;20032;-71
2023/01/07 15:37:51;;;;;;;4.90;3.33;;;10.80;98.00;;;;;;4906693;29;20028;-74
2023/01/07 15:40:19;;;;;;;7.60;4.00;;;10.70;98.20;;;;;;4906268;29;20025;-73
2023/01/07 15:42:50;;;;;;;7.25;3.40;;;10.60;98.70;;;;;;4906852;29;20041;-73
2023/01/07 15:45:23;;;;;;;6.78;3.85;;;10.60;98.70;;;;;;4906173;29;20052;-74
2023/01/07 15:47:50;;;;;;;4.93;2.90;;;10.50;98.60;;;;;;4906166;29;20032;-72
2023/01/07 15:50:21;;;;;;;4.97;2.90;;;10.40;98.80;;;;;;4907705;29;20040;-73
2023/01/07 15:52:53;;;;;;;5.53;3.38;;;10.30;99.00;;;;;;4905300;29;20275;-72
2023/01/07 15:55:33;;;;;;;8.38;3.28;;;10.20;99.40;;;;;;4904792;29;20321;-72
2023/01/07 15:58:11;;;;;;;6.43;3.55;;;10.20;99.70;;;;;;4906250;29;20036;-71
2023/01/07 16:00:37;;;;;;;4.57;3.25;;;10.20;99.90;;;;;;4906384;29;20064;-73
2023/01/07 16:03:04;;;;;;;6.60;4.22;;;10.00;99.90;;;;;;4908093;29;20056;-76
2023/01/07 16:05:31;;;;;;;7.63;3.83;;;9.90;99.90;;;;;;4909149;29;20033;-73
2023/01/07 16:08:00;;;;;;;7.03;3.80;;;9.80;99.90;;;;;;4909688;29;20025;-75
2023/01/07 16:10:28;;;;;;;7.28;3.92;;;9.80;99.90;;;;;;4909939;29;20393;-73
2023/01/07 16:12:57;;;;;;;6.53;3.90;;;9.80;99.90;;;;;;4910261;29;20047;-73
2023/01/07 16:15:27;;;;;;;5.85;4.07;;;9.60;99.90;;;;;;4909723;29;20040;-75
2023/01/07 16:17:59;;;;;;;6.40;3.90;;;9.60;99.90;;;;;;4910084;29;20379;-74
2023/01/07 16:20:28;;;;;;;6.07;3.58;;;9.50;99.90;;;;;;4910042;29;20035;-74
2023/01/07 16:23:09;;;;;;;7.00;3.58;;;9.50;99.90;;;;;;4909652;29;20366;-74
2023/01/07 16:25:36;;;;;;;6.00;3.88;;;9.50;99.90;;;;;;4909781;29;20263;-74
2023/01/07 16:28:03;;;;;;;5.10;3.45;;;9.30;99.90;;;;;;4909299;29;20055;-73
2023/01/07 16:30:29;;;;;;;6.38;4.25;;;9.30;99.90;;;;;;4909959;29;20218;-73
2023/01/07 16:33:02;;;;;;;5.82;4.10;;;9.20;99.90;;;;;;4902823;29;20036;-76
2023/01/07 16:35:32;;;;;;;7.05;4.50;;;9.20;99.90;;;;;;4902662;29;20088;-74
2023/01/07 16:38:02;;;;;;;7.38;4.32;;;9.20;99.90;;;;;;4907839;29;20175;-75
2023/01/07 16:40:36;;;;;;;8.02;4.82;;;9.20;99.90;;;;;;4905312;29;20036;-75
2023/01/07 16:43:03;;;;;;;6.25;3.67;;;9.20;99.90;;;;;;4890408;29;20029;-73
2023/01/07 16:45:32;;;;;;;5.78;3.47;;;9.10;99.90;;;;;;4889354;29;20033;-73
2023/01/07 16:48:22;;;;;;;5.47;3.38;;;9.00;99.90;;;;;;4889214;29;20075;-75
2023/01/07 16:50:48;;;;;;;6.28;3.13;;;9.00;99.90;;;;;;4908595;29;20073;-74
2023/01/07 16:53:25;;;;;;;5.35;3.10;;;8.90;99.90;;;;;;4909071;29;20207;-74
2023/01/07 16:56:16;;;;;;;8.10;4.72;;;8.80;99.90;;;;;;4909926;29;20315;-72
2023/01/07 16:58:57;;;;;;;8.15;5.57;;;8.80;99.90;;;;;;4913385;29;20072;-73
2023/01/07 17:01:34;;;;;;;9.45;5.13;;;8.70;99.90;;;;;;4914100;29;20032;-73
2023/01/07 17:04:06;;;;;;;7.95;5.45;;;8.60;99.90;;;;;;4911103;29;20047;-73
2023/01/07 17:06:41;;;;;;;7.53;4.78;;;8.60;99.90;;;;;;4901398;29;20117;-75
2023/01/07 17:09:24;;;;;;;7.00;4.30;;;8.50;99.90;;;;;;4890049;29;20028;-73
2023/01/07 17:11:52;;;;;;;8.07;4.15;;;8.40;99.90;;;;;;4889939;29;20084;-74
2023/01/07 17:14:32;;;;;;;5.43;3.28;;;8.40;99.90;;;;;;4889427;29;20037;-71
2023/01/07 17:16:59;;;;;;;5.75;3.80;;;8.50;99.90;;;;;;4890355;29;20070;-71
2023/01/07 17:19:26;;;;;;;6.43;3.95;;;8.50;99.90;;;;;;4890014;29;20199;-73
2023/01/07 17:21:53;;;;;;;6.77;4.23;;;8.50;99.90;;;;;;4890606;29;20037;-71
2023/01/07 17:24:28;;;;;;;7.53;4.38;;;8.50;99.90;;;;;;4907806;29;20457;-72
2023/01/07 17:26:56;;;;;;;9.75;4.70;;;8.50;99.90;;;;;;4908645;29;20207;-72
2023/01/07 17:29:28;;;;;;;8.95;5.32;;;8.40;99.90;;;;;;4908335;29;20039;-73
2023/01/07 17:31:56;;;;;;;8.93;5.38;;;8.40;99.90;;;;;;4908520;29;20041;-72
2023/01/07 17:34:22;;;;;;;7.57;4.78;;;8.40;99.90;;;;;;4907709;29;20047;-70
2023/01/07 17:36:48;;;;;;;8.77;4.65;;;8.40;99.90;;;;;;4908350;29;20334;-72
2023/01/07 17:39:13;;;;;;;9.27;5.32;;;8.30;99.90;;;;;;4908184;29;20052;-72
2023/01/07 17:44:26;;;;;;;8.18;5.03;;;8.30;99.90;;;;;;4892337;29;20032;-71
2023/01/07 17:46:52;;;;;;;9.35;5.25;;;8.10;99.90;;;;;;4889503;29;20100;-71
2023/01/07 17:49:19;;;;;;;9.38;5.57;;;8.10;99.90;;;;;;4889330;29;20025;-71
2023/01/07 17:51:47;;;;;;;11.10;5.63;;;8.10;99.90;;;;;;4899559;29;20039;-74
2023/01/07 17:54:21;;;;;;;8.32;5.18;;;8.10;99.90;;;;;;4888772;29;20342;-71
2023/01/07 17:56:48;;;;;;;9.48;5.55;;;8.00;99.90;;;;;;4898824;29;20171;-72
2023/01/07 17:59:20;;;;;;;8.13;5.63;;;8.00;99.90;;;;;;4907297;29;20107;-72
2023/01/07 18:01:46;;;;;;;9.98;5.88;;;8.00;99.90;;;;;;4907716;29;20092;-73
2023/01/07 18:04:11;;;;;;;9.85;5.50;;;7.90;99.90;;;;;;4906560;29;20040;-72
2023/01/07 18:06:40;;;;;;;10.25;6.10;;;7.80;99.90;;;;;;4905769;29;20070;-72
2023/01/07 18:09:07;;;;;;;9.18;5.80;;;7.70;99.90;;;;;;4895410;29;20044;-71
2023/01/07 18:14:27;;;;;;;8.93;5.80;;;7.70;99.90;;;;;;4887440;29;20036;-73
2023/01/07 18:16:53;;;;;;;9.48;6.45;;;7.60;99.90;;;;;;4887789;29;20037;-72
2023/01/07 18:19:19;;;;;;;9.50;6.18;;;7.50;99.90;;;;;;4887277;29;20205;-72
2023/01/07 18:21:45;;;;;;;8.45;6.00;;;7.40;99.90;;;;;;4887913;29;20032;-73
2023/01/07 18:24:16;;;;;;;10.38;6.68;;;7.30;99.90;;;;;;4887804;29;20375;-73
2023/01/07 18:26:41;;;;;;;10.25;5.90;;;7.20;99.90;;;;;;4886851;29;20048;-74
2023/01/07 18:29:09;;;;;;;11.68;7.07;;;7.10;99.90;;;;;;4887454;29;20218;-71
2023/01/07 18:31:40;;;;;;;10.43;6.50;;;7.00;99.90;;;;;;4887829;29;20021;-73
2023/01/07 18:34:07;;;;;;;11.05;7.20;;;7.00;99.90;;;;;;4887076;29;20041;-73
2023/01/07 18:36:33;;;;;;;9.07;6.50;;;7.00;99.90;;;;;;4902421;29;20370;-72
2023/01/07 18:38:59;;;;;;;16.17;6.63;;;7.00;99.90;;;;;;4906290;29;20040;-74
2023/01/07 18:41:25;;;;;;;10.60;6.25;;;7.00;99.90;;;;;;4904512;29;20111;-72
2023/01/07 18:43:50;;;;;;;11.48;6.38;;;7.00;99.90;;;;;;4906644;29;20129;-72
2023/01/07 18:46:16;;;;;;;9.95;6.85;;;7.10;99.90;;;;;;4904730;29;20096;-73
2023/01/07 18:48:43;;;;;;;11.35;6.45;;;7.20;99.90;;;;;;4906426;29;20088;-72
2023/01/07 18:51:10;;;;;;;10.57;6.93;;;7.30;99.90;;;;;;4905942;29;20099;-74
2023/01/07 18:53:36;;;;;;;11.25;6.55;;;7.30;99.90;;;;;;4906302;29;20305;-73
2023/01/07 18:56:02;;;;;;;10.45;6.20;;;7.40;99.90;;;;;;4906214;29;20043;-74
2023/01/07 18:58:28;;;;;;;11.15;6.63;;;7.40;99.90;;;;;;4905661;29;20037;-74
2023/01/07 19:00:54;;;;;;;12.02;7.75;;;7.30;99.90;;;;;;4906353;29;20032;-75
2023/01/07 19:03:20;;;;;;;14.32;7.50;;;7.20;99.90;;;;;;4867606;29;1136775;-74
2023/01/07 19:05:45;;;;;;;12.13;7.38;;;7.20;99.90;;;;;;4902338;29;20137;-71
2023/01/07 19:08:11;;;;;;;11.85;7.40;;;7.20;99.90;;;;;;4887547;29;20036;-72
2023/01/07 19:10:40;;;;;;;10.82;7.78;;;7.10;99.90;;;;;;4888233;29;20048;-72
2023/01/07 19:13:05;;;;;;;12.15;7.68;;;7.00;99.90;;;;;;4888343;29;20059;-73
2023/01/07 19:15:32;;;;;;;14.20;8.15;;;7.00;99.90;;;;;;4887761;29;20029;-74
2023/01/07 19:17:58;;;;;;;13.75;7.80;;;7.00;99.90;;;;;;4888043;29;20234;-73
2023/01/07 19:20:26;;;;;;;14.77;7.93;;;7.00;99.90;;;;;;4887508;29;20033;-71
2023/01/07 19:22:58;;;;;;;13.25;7.68;;;7.00;99.90;;;;;;4887729;29;20274;-71
2023/01/07 19:25:23;;;;;;;12.68;7.90;;;7.00;99.90;;;;;;4902473;29;20029;-73
2023/01/07 19:27:52;;;;;;;12.23;8.10;;;7.00;99.90;;;;;;4889231;29;20051;-72
2023/01/07 19:30:18;;;;;;;12.90;7.78;;;7.00;99.90;;;;;;4887872;29;20029;-71
2023/01/07 19:32:44;;;;;;;13.40;7.60;;;7.00;99.90;;;;;;4888332;29;20165;-74
2023/01/07 19:35:09;;;;;;;12.95;7.53;;;6.90;99.90;;;;;;4891516;29;20024;-72